Chenango Bridge, New York
Current Conditions -  °F | °C
As of 1:53 PM on Tuesday 27 Jan 2015 (Local Time) from KBGM Reporting Station
Clear Clear  
Wind Chill: -2°   Ceiling: Unl
Heat Index: 13°   Visibility: 10mi
Dew Point:   Wind: 14mph
Humidity: 65%   Direction: 320°NW
Pressure: 29.76"   Gusts: 20mph
Location:  42.17°N, 75.86°W
Report Text: KBGM 271853Z 32012G17KT 10SM CLR M11/M16 A2976 RMK AO2 SLP106 T11061161
Loading
Personal Weather Stations






























Interactive Weather Map New forecast layout! Learn more

10-Day Weather Forecast

Advertisements
Track Severe Weather on mobile